createdAt,value
2018-11-04T00:00:15.447Z,100560.76
2018-11-04T00:05:33.989Z,100555.06
2018-11-04T00:10:52.514Z,100546.06
2018-11-04T00:16:11.028Z,100548.20
2018-11-04T00:21:29.499Z,100541.28
2018-11-04T00:26:48.032Z,100535.58
2018-11-04T00:32:06.666Z,100535.14
2018-11-04T00:37:25.246Z,100526.00
2018-11-04T00:42:43.749Z,100525.28
2018-11-04T00:48:02.270Z,100521.22
2018-11-04T00:53:21.210Z,100518.83
2018-11-04T00:58:39.715Z,100508.05
2018-11-04T01:03:58.247Z,100498.44
2018-11-04T01:09:16.880Z,100494.84
2018-11-04T01:14:35.332Z,100484.19
2018-11-04T01:19:53.900Z,100479.86
2018-11-04T01:25:12.442Z,100468.73
2018-11-04T01:30:37.667Z,100461.22
2018-11-04T01:35:56.181Z,100445.80
2018-11-04T01:41:14.704Z,100443.66
2018-11-04T01:46:33.190Z,100435.45
2018-11-04T01:51:51.711Z,100434.25
2018-11-04T01:57:10.258Z,100424.44
2018-11-04T02:02:28.767Z,100425.84
2018-11-04T02:07:47.279Z,100416.33
2018-11-04T02:13:06.034Z,100401.66
2018-11-04T02:18:24.575Z,100390.20
2018-11-04T02:23:43.181Z,100382.91
2018-11-04T02:29:01.691Z,100371.94
2018-11-04T02:34:20.203Z,100366.33
2018-11-04T02:39:38.726Z,100357.67
2018-11-04T02:44:57.320Z,100356.69
2018-11-04T02:50:15.901Z,100344.53
2018-11-04T02:55:34.425Z,100337.09
2018-11-04T03:00:52.911Z,100331.33
2018-11-04T03:06:11.426Z,100317.08
2018-11-04T03:11:29.993Z,100314.43
2018-11-04T03:16:48.552Z,100306.80
2018-11-04T03:22:07.380Z,100307.73
2018-11-04T03:27:25.901Z,100301.82
2018-11-04T03:32:44.411Z,100300.75
2018-11-04T03:38:02.888Z,100300.24
2018-11-04T03:43:21.564Z,100305.33
2018-11-04T03:48:40.061Z,100304.75
2018-11-04T03:53:58.555Z,100304.64
2018-11-04T03:59:17.055Z,100305.25
2018-11-04T04:04:35.631Z,100304.20
2018-11-04T04:09:54.183Z,100301.42
2018-11-04T04:15:12.739Z,100300.95
2018-11-04T04:20:31.328Z,100305.28
2018-11-04T04:25:49.849Z,100295.52
2018-11-04T04:31:08.395Z,100291.48
2018-11-04T04:36:26.916Z,100287.66
2018-11-04T04:41:45.407Z,100278.93
2018-11-04T04:47:03.931Z,100281.09
2018-11-04T04:52:22.455Z,100269.88
2018-11-04T04:57:40.935Z,100266.74
2018-11-04T05:02:59.462Z,100262.10
2018-11-04T05:08:18.007Z,100256.05
2018-11-04T05:13:36.538Z,100251.84
2018-11-04T05:18:55.051Z,100251.60
2018-11-04T05:24:13.544Z,100258.56
2018-11-04T05:29:32.070Z,100258.72
2018-11-04T05:34:50.564Z,100261.84
2018-11-04T05:40:09.298Z,100252.94
2018-11-04T05:45:27.836Z,100247.33
2018-11-04T05:50:46.308Z,100250.30
2018-11-04T05:56:04.948Z,100245.52
2018-11-04T06:01:23.579Z,100245.81
2018-11-04T06:06:42.124Z,100247.63
2018-11-04T06:12:00.659Z,100243.31
2018-11-04T06:17:19.333Z,100244.76
2018-11-04T06:22:37.850Z,100240.58
2018-11-04T06:27:56.368Z,100238.55
2018-11-04T06:33:15.582Z,100242.98
2018-11-04T06:38:34.153Z,100244.70
2018-11-04T06:43:52.659Z,100243.62
2018-11-04T06:49:11.207Z,100238.13
2018-11-04T06:54:29.754Z,100245.41
2018-11-04T06:59:49.449Z,100246.45
2018-11-04T07:05:08.014Z,100244.92
2018-11-04T07:10:27.144Z,100243.81
2018-11-04T07:15:46.773Z,100242.28
2018-11-04T07:21:05.671Z,100244.55
2018-11-04T07:26:24.210Z,100245.89
2018-11-04T07:31:43.439Z,100246.34
2018-11-04T07:37:01.987Z,100242.47
2018-11-04T07:42:20.603Z,100230.91
2018-11-04T07:47:39.295Z,100232.80
2018-11-04T07:52:57.878Z,100224.50
2018-11-04T07:58:16.441Z,100220.40
2018-11-04T08:03:34.986Z,100208.00
2018-11-04T08:08:53.924Z,100205.69
2018-11-04T08:14:12.469Z,100208.14
2018-11-04T08:19:31.015Z,100200.30
2018-11-04T08:24:49.562Z,100194.10
2018-11-04T08:30:09.132Z,100196.37
2018-11-04T08:35:27.622Z,100191.27
2018-11-04T08:40:46.222Z,100183.61
2018-11-04T08:46:04.787Z,100192.38
2018-11-04T08:51:23.322Z,100185.23
2018-11-04T08:56:41.858Z,100178.03
2018-11-04T09:02:00.349Z,100173.63
2018-11-04T09:07:18.965Z,100174.52
2018-11-04T09:12:37.758Z,100168.66
2018-11-04T09:17:57.924Z,100167.29
2018-11-04T09:23:17.034Z,100155.09
2018-11-04T09:28:36.210Z,100148.03
2018-11-04T09:33:54.718Z,100160.69
2018-11-04T09:39:13.391Z,100166.13
2018-11-04T09:44:31.881Z,100154.26
2018-11-04T09:49:50.413Z,100157.03
2018-11-04T09:55:10.005Z,100163.16
2018-11-04T10:00:28.768Z,100161.89
2018-11-04T10:05:48.876Z,100166.05
2018-11-04T10:11:07.458Z,100169.13
2018-11-04T10:16:26.031Z,100158.23
2018-11-04T10:21:44.486Z,100161.12
2018-11-04T10:27:03.136Z,100147.03
2018-11-04T10:32:21.672Z,100151.01
2018-11-04T10:37:41.239Z,100145.20
2018-11-04T10:42:59.911Z,100133.80
2018-11-04T10:48:19.209Z,100129.30
2018-11-04T10:53:37.787Z,100118.47
2018-11-04T10:58:56.427Z,100112.34
2018-11-04T11:04:16.143Z,100105.78
2018-11-04T11:09:34.766Z,100105.73
2018-11-04T11:14:53.476Z,100095.09
2018-11-04T11:20:13.221Z,100077.79
2018-11-04T11:25:32.282Z,100069.94
2018-11-04T11:30:51.469Z,100056.41
2018-11-04T11:36:10.222Z,100060.72
2018-11-04T11:41:28.773Z,100041.31
2018-11-04T11:46:47.915Z,100042.33
2018-11-04T11:52:07.845Z,100032.44
2018-11-04T11:57:26.955Z,100023.64
2018-11-04T12:02:45.481Z,100025.30
2018-11-04T12:08:04.075Z,100015.17
2018-11-04T12:13:22.637Z,100003.41
2018-11-04T12:18:42.759Z,100002.93
2018-11-04T12:24:01.466Z,99988.70
2018-11-04T12:29:20.140Z,99972.38
2018-11-04T12:34:38.679Z,99976.34
2018-11-04T12:39:58.136Z,99966.93
2018-11-04T12:45:16.772Z,99966.83
2018-11-04T12:50:35.872Z,99962.92
2018-11-04T12:55:54.549Z,99959.94
2018-11-04T13:01:13.145Z,99951.44
2018-11-04T13:06:31.667Z,99946.12
2018-11-04T13:11:50.178Z,99942.52
2018-11-04T13:17:08.831Z,99939.23
2018-11-04T13:22:27.551Z,99929.53
2018-11-04T13:27:46.110Z,99919.31
2018-11-04T13:33:04.947Z,99911.84
2018-11-04T13:38:23.491Z,99907.68
2018-11-04T13:43:41.999Z,99896.64
2018-11-04T13:49:00.551Z,99894.69
2018-11-04T13:54:19.104Z,99880.91
2018-11-04T13:59:37.905Z,99865.55
2018-11-04T14:04:56.431Z,99860.55
2018-11-04T14:10:16.046Z,99861.03
2018-11-04T14:15:34.535Z,99854.78
2018-11-04T14:20:53.059Z,99843.05
2018-11-04T14:26:13.367Z,99843.64
2018-11-04T14:31:31.951Z,99827.68
2018-11-04T14:36:50.593Z,99833.54
2018-11-04T14:42:09.185Z,99829.78
2018-11-04T14:47:27.735Z,99831.88
2018-11-04T14:52:46.581Z,99836.34
2018-11-04T14:58:05.628Z,99825.11
2018-11-04T15:03:25.547Z,99826.67
2018-11-04T15:08:44.189Z,99823.64
2018-11-04T15:14:03.395Z,99831.41
2018-11-04T15:19:22.471Z,99829.38
2018-11-04T15:24:40.988Z,99836.13
2018-11-04T15:29:59.520Z,99834.22
2018-11-04T15:35:18.534Z,99834.03
2018-11-04T15:40:37.987Z,99834.14
2018-11-04T15:45:56.497Z,99832.72
2018-11-04T15:51:15.078Z,99827.83
2018-11-04T15:56:33.707Z,99819.44
2018-11-04T16:01:52.199Z,99818.63
2018-11-04T16:07:10.846Z,99817.09
2018-11-04T16:12:29.875Z,99819.06
2018-11-04T16:17:48.448Z,99815.06
2018-11-04T16:23:07.000Z,99817.63
2018-11-04T16:28:25.604Z,99810.18
2018-11-04T16:33:44.179Z,99813.25
2018-11-04T16:39:02.723Z,99811.70
2018-11-04T16:44:21.579Z,99820.91
2018-11-04T16:49:40.025Z,99802.23
2018-11-04T16:54:58.678Z,99810.79
2018-11-04T17:00:17.492Z,99813.45
2018-11-04T17:05:36.590Z,99824.88
2018-11-04T17:10:55.191Z,99819.35
2018-11-04T17:16:15.337Z,99813.44
2018-11-04T17:21:34.570Z,99814.61
2018-11-04T17:26:53.293Z,99810.34
2018-11-04T17:32:12.116Z,99803.39
2018-11-04T17:37:30.662Z,99803.99
2018-11-04T17:42:49.186Z,99813.78
2018-11-04T17:48:07.726Z,99804.50
2018-11-04T17:53:26.462Z,99821.22
2018-11-04T17:58:44.982Z,99809.59
2018-11-04T18:04:03.814Z,99792.36
2018-11-04T18:09:22.311Z,99780.20
2018-11-04T18:14:45.284Z,99775.07
2018-11-04T18:20:04.132Z,99792.78
2018-11-04T18:25:23.245Z,99776.95
2018-11-04T18:30:41.807Z,99774.01
2018-11-04T18:36:00.338Z,99767.11
2018-11-04T18:41:18.846Z,99778.69
2018-11-04T18:46:37.424Z,99787.35
2018-11-04T18:51:56.060Z,99784.78
2018-11-04T18:57:14.588Z,99778.98
2018-11-04T19:02:33.299Z,99777.63
2018-11-04T19:07:51.832Z,99779.66
2018-11-04T19:13:10.413Z,99774.94
2018-11-04T19:18:28.990Z,99769.35
2018-11-04T19:23:47.566Z,99765.71
2018-11-04T19:29:06.180Z,99746.43
2018-11-04T19:34:24.859Z,99742.67
2018-11-04T19:39:44.207Z,99742.09
2018-11-04T19:45:02.803Z,99732.34
2018-11-04T19:50:21.692Z,99744.63
2018-11-04T19:55:40.261Z,99740.26
2018-11-04T20:00:58.788Z,99735.52
2018-11-04T20:06:17.593Z,99729.73
2018-11-04T20:11:36.247Z,99737.83
2018-11-04T20:16:55.604Z,99731.98
2018-11-04T20:22:14.144Z,99730.33
2018-11-04T20:27:32.737Z,99722.39
2018-11-04T20:32:56.758Z,99731.52
2018-11-04T20:38:15.696Z,99726.28
2018-11-04T20:43:34.865Z,99746.25
2018-11-04T20:48:58.739Z,99731.78
2018-11-04T20:54:17.487Z,99725.61
2018-11-04T20:59:36.022Z,99723.52
2018-11-04T21:04:55.222Z,99722.77
2018-11-04T21:10:14.942Z,99713.91
2018-11-04T21:15:36.642Z,99705.84
2018-11-04T21:20:55.306Z,99705.13
2018-11-04T21:26:14.800Z,99706.36
2018-11-04T21:31:35.239Z,99701.51
2018-11-04T21:36:53.914Z,99694.65
2018-11-04T21:42:14.837Z,99697.73
2018-11-04T21:47:33.649Z,99693.34
2018-11-04T21:52:52.738Z,99680.57
2018-11-04T21:58:11.863Z,99667.81
2018-11-04T22:03:30.478Z,99662.30
2018-11-04T22:08:49.045Z,99656.70
2018-11-04T22:14:07.580Z,99642.64
2018-11-04T22:19:26.111Z,99639.64
2018-11-04T22:24:44.896Z,99630.33
2018-11-04T22:30:04.778Z,99622.25
2018-11-04T22:35:23.414Z,99618.11
2018-11-04T22:40:45.731Z,99619.95
2018-11-04T22:46:04.621Z,99618.53
2018-11-04T22:51:23.158Z,99629.36
2018-11-04T22:56:41.733Z,99621.75
2018-11-04T23:02:00.190Z,99625.61
2018-11-04T23:07:18.662Z,99628.98
2018-11-04T23:12:37.611Z,99621.16
2018-11-04T23:17:56.182Z,99625.77
2018-11-04T23:23:14.705Z,99621.51
2018-11-04T23:28:33.217Z,99621.72
2018-11-04T23:33:51.746Z,99618.09
2018-11-04T23:39:10.917Z,99614.98
2018-11-04T23:44:29.448Z,99608.09
2018-11-04T23:49:47.963Z,99605.86
2018-11-04T23:55:08.287Z,99598.45
